sensor_id;sensor_type;location;lat;lon;timestamp;P1;durP1;ratioP1;P2;durP2;ratioP2
74793;SDS011;63320;50.768;6.724;2023-06-26T00:01:17;7.22;;;5.05;;
74793;SDS011;63320;50.768;6.724;2023-06-26T00:03:44;10.32;;;5.25;;
74793;SDS011;63320;50.768;6.724;2023-06-26T00:06:09;7.85;;;5.07;;
74793;SDS011;63320;50.768;6.724;2023-06-26T00:08:34;10.18;;;5.00;;
74793;SDS011;63320;50.768;6.724;2023-06-26T00:11:00;7.90;;;5.35;;
74793;SDS011;63320;50.768;6.724;2023-06-26T00:13:25;8.65;;;5.22;;
74793;SDS011;63320;50.768;6.724;2023-06-26T00:15:50;7.03;;;4.90;;
74793;SDS011;63320;50.768;6.724;2023-06-26T00:18:16;7.57;;;5.03;;
74793;SDS011;63320;50.768;6.724;2023-06-26T00:20:43;8.70;;;5.30;;
74793;SDS011;63320;50.768;6.724;2023-06-26T00:23:08;7.80;;;5.60;;
74793;SDS011;63320;50.768;6.724;2023-06-26T00:25:33;7.88;;;4.97;;
74793;SDS011;63320;50.768;6.724;2023-06-26T00:27:59;6.82;;;4.97;;
74793;SDS011;63320;50.768;6.724;2023-06-26T00:30:24;7.93;;;5.10;;
74793;SDS011;63320;50.768;6.724;2023-06-26T00:32:50;7.35;;;4.97;;
74793;SDS011;63320;50.768;6.724;2023-06-26T00:35:15;7.97;;;5.32;;
74793;SDS011;63320;50.768;6.724;2023-06-26T00:37:42;8.77;;;5.18;;
74793;SDS011;63320;50.768;6.724;2023-06-26T00:40:08;8.60;;;5.15;;
74793;SDS011;63320;50.768;6.724;2023-06-26T00:42:34;8.00;;;5.47;;
74793;SDS011;63320;50.768;6.724;2023-06-26T00:44:59;7.78;;;5.35;;
74793;SDS011;63320;50.768;6.724;2023-06-26T00:47:25;6.95;;;4.93;;
74793;SDS011;63320;50.768;6.724;2023-06-26T00:49:50;8.65;;;4.90;;
74793;SDS011;63320;50.768;6.724;2023-06-26T00:52:16;8.32;;;5.07;;
74793;SDS011;63320;50.768;6.724;2023-06-26T00:54:44;7.70;;;5.22;;
74793;SDS011;63320;50.768;6.724;2023-06-26T00:57:09;7.32;;;5.05;;
74793;SDS011;63320;50.768;6.724;2023-06-26T00:59:35;7.38;;;4.93;;
74793;SDS011;63320;50.768;6.724;2023-06-26T01:02:00;7.65;;;5.28;;
74793;SDS011;63320;50.768;6.724;2023-06-26T01:04:25;8.77;;;5.53;;
74793;SDS011;63320;50.768;6.724;2023-06-26T01:06:51;7.35;;;4.93;;
74793;SDS011;63320;50.768;6.724;2023-06-26T01:09:17;8.23;;;4.85;;
74793;SDS011;63320;50.768;6.724;2023-06-26T01:11:45;6.88;;;4.97;;
74793;SDS011;63320;50.768;6.724;2023-06-26T01:14:11;7.95;;;5.40;;
74793;SDS011;63320;50.768;6.724;2023-06-26T01:16:36;7.40;;;4.97;;
74793;SDS011;63320;50.768;6.724;2023-06-26T01:19:03;7.32;;;4.93;;
74793;SDS011;63320;50.768;6.724;2023-06-26T01:21:32;7.20;;;5.10;;
74793;SDS011;63320;50.768;6.724;2023-06-26T01:24:02;11.25;;;5.13;;
74793;SDS011;63320;50.768;6.724;2023-06-26T01:26:34;8.13;;;5.45;;
74793;SDS011;63320;50.768;6.724;2023-06-26T01:29:01;8.77;;;5.20;;
74793;SDS011;63320;50.768;6.724;2023-06-26T01:31:29;7.47;;;5.15;;
74793;SDS011;63320;50.768;6.724;2023-06-26T01:33:56;8.35;;;5.00;;
74793;SDS011;63320;50.768;6.724;2023-06-26T01:36:23;7.63;;;5.38;;
74793;SDS011;63320;50.768;6.724;2023-06-26T01:38:48;7.60;;;5.10;;
74793;SDS011;63320;50.768;6.724;2023-06-26T01:41:14;8.73;;;5.20;;
74793;SDS011;63320;50.768;6.724;2023-06-26T01:43:43;7.03;;;4.93;;
74793;SDS011;63320;50.768;6.724;2023-06-26T01:46:23;8.60;;;5.50;;
74793;SDS011;63320;50.768;6.724;2023-06-26T01:49:01;11.90;;;5.07;;
74793;SDS011;63320;50.768;6.724;2023-06-26T01:51:33;7.30;;;5.20;;
74793;SDS011;63320;50.768;6.724;2023-06-26T01:54:03;7.07;;;4.75;;
74793;SDS011;63320;50.768;6.724;2023-06-26T01:56:31;8.60;;;5.18;;
74793;SDS011;63320;50.768;6.724;2023-06-26T01:58:58;8.43;;;5.60;;
74793;SDS011;63320;50.768;6.724;2023-06-26T02:01:25;9.75;;;5.40;;
74793;SDS011;63320;50.768;6.724;2023-06-26T02:03:50;7.18;;;5.32;;
74793;SDS011;63320;50.768;6.724;2023-06-26T02:06:15;8.18;;;5.32;;
74793;SDS011;63320;50.768;6.724;2023-06-26T02:08:41;8.70;;;5.80;;
74793;SDS011;63320;50.768;6.724;2023-06-26T02:11:07;8.25;;;5.40;;
74793;SDS011;63320;50.768;6.724;2023-06-26T02:13:32;9.57;;;5.30;;
74793;SDS011;63320;50.768;6.724;2023-06-26T02:15:59;8.10;;;5.28;;
74793;SDS011;63320;50.768;6.724;2023-06-26T02:18:24;9.50;;;5.57;;
74793;SDS011;63320;50.768;6.724;2023-06-26T02:20:49;9.32;;;5.75;;
74793;SDS011;63320;50.768;6.724;2023-06-26T02:23:15;9.00;;;5.38;;
74793;SDS011;63320;50.768;6.724;2023-06-26T02:25:40;8.55;;;5.40;;
74793;SDS011;63320;50.768;6.724;2023-06-26T02:28:05;8.00;;;5.35;;
74793;SDS011;63320;50.768;6.724;2023-06-26T02:30:31;7.20;;;5.03;;
74793;SDS011;63320;50.768;6.724;2023-06-26T02:32:57;7.97;;;4.90;;
74793;SDS011;63320;50.768;6.724;2023-06-26T02:35:23;7.00;;;5.13;;
74793;SDS011;63320;50.768;6.724;2023-06-26T02:37:48;8.07;;;5.20;;
74793;SDS011;63320;50.768;6.724;2023-06-26T02:40:14;7.80;;;5.05;;
74793;SDS011;63320;50.768;6.724;2023-06-26T02:42:39;7.53;;;5.15;;
74793;SDS011;63320;50.768;6.724;2023-06-26T02:45:05;6.32;;;4.60;;
74793;SDS011;63320;50.768;6.724;2023-06-26T02:47:31;8.73;;;5.03;;
74793;SDS011;63320;50.768;6.724;2023-06-26T02:49:57;8.35;;;5.32;;
74793;SDS011;63320;50.768;6.724;2023-06-26T02:52:23;7.40;;;5.05;;
74793;SDS011;63320;50.768;6.724;2023-06-26T02:54:48;8.85;;;5.20;;
74793;SDS011;63320;50.768;6.724;2023-06-26T02:57:13;14.55;;;5.38;;
74793;SDS011;63320;50.768;6.724;2023-06-26T02:59:39;8.13;;;5.07;;
74793;SDS011;63320;50.768;6.724;2023-06-26T03:02:04;9.45;;;5.50;;
74793;SDS011;63320;50.768;6.724;2023-06-26T03:04:29;8.13;;;5.10;;
74793;SDS011;63320;50.768;6.724;2023-06-26T03:06:56;9.52;;;5.65;;
74793;SDS011;63320;50.768;6.724;2023-06-26T03:09:21;7.18;;;5.07;;
74793;SDS011;63320;50.768;6.724;2023-06-26T03:11:47;8.13;;;5.50;;
74793;SDS011;63320;50.768;6.724;2023-06-26T03:14:12;7.90;;;5.25;;
74793;SDS011;63320;50.768;6.724;2023-06-26T03:16:37;12.15;;;5.70;;
74793;SDS011;63320;50.768;6.724;2023-06-26T03:19:03;8.82;;;5.32;;
74793;SDS011;63320;50.768;6.724;2023-06-26T03:21:28;8.60;;;5.00;;
74793;SDS011;63320;50.768;6.724;2023-06-26T03:23:55;8.23;;;5.45;;
74793;SDS011;63320;50.768;6.724;2023-06-26T03:26:20;8.65;;;5.68;;
74793;SDS011;63320;50.768;6.724;2023-06-26T03:28:45;8.80;;;5.57;;
74793;SDS011;63320;50.768;6.724;2023-06-26T03:31:11;8.27;;;5.18;;
74793;SDS011;63320;50.768;6.724;2023-06-26T03:33:36;8.75;;;5.30;;
74793;SDS011;63320;50.768;6.724;2023-06-26T03:36:02;7.97;;;5.50;;
74793;SDS011;63320;50.768;6.724;2023-06-26T03:38:28;9.50;;;5.32;;
74793;SDS011;63320;50.768;6.724;2023-06-26T03:40:55;7.35;;;5.20;;
74793;SDS011;63320;50.768;6.724;2023-06-26T03:43:20;8.75;;;5.65;;
74793;SDS011;63320;50.768;6.724;2023-06-26T03:45:46;9.73;;;5.85;;
74793;SDS011;63320;50.768;6.724;2023-06-26T03:48:11;8.02;;;4.97;;
74793;SDS011;63320;50.768;6.724;2023-06-26T03:50:36;9.35;;;5.82;;
74793;SDS011;63320;50.768;6.724;2023-06-26T03:53:02;9.20;;;5.95;;
74793;SDS011;63320;50.768;6.724;2023-06-26T03:55:27;9.43;;;5.82;;
74793;SDS011;63320;50.768;6.724;2023-06-26T03:57:54;8.52;;;5.40;;
74793;SDS011;63320;50.768;6.724;2023-06-26T04:00:19;8.80;;;5.90;;
74793;SDS011;63320;50.768;6.724;2023-06-26T04:02:44;10.55;;;5.90;;
74793;SDS011;63320;50.768;6.724;2023-06-26T04:05:10;7.60;;;5.43;;
74793;SDS011;63320;50.768;6.724;2023-06-26T04:07:36;10.10;;;6.10;;
74793;SDS011;63320;50.768;6.724;2023-06-26T04:10:02;9.10;;;5.43;;
74793;SDS011;63320;50.768;6.724;2023-06-26T04:12:28;9.98;;;5.47;;
74793;SDS011;63320;50.768;6.724;2023-06-26T04:14:54;8.45;;;5.28;;
74793;SDS011;63320;50.768;6.724;2023-06-26T04:17:20;7.35;;;5.43;;
74793;SDS011;63320;50.768;6.724;2023-06-26T04:19:45;10.48;;;5.40;;
74793;SDS011;63320;50.768;6.724;2023-06-26T04:22:10;10.02;;;5.60;;
74793;SDS011;63320;50.768;6.724;2023-06-26T04:24:36;10.10;;;5.22;;
74793;SDS011;63320;50.768;6.724;2023-06-26T04:27:01;11.50;;;5.53;;
74793;SDS011;63320;50.768;6.724;2023-06-26T04:29:26;8.77;;;5.85;;
74793;SDS011;63320;50.768;6.724;2023-06-26T04:31:53;8.18;;;5.38;;
74793;SDS011;63320;50.768;6.724;2023-06-26T04:34:18;9.68;;;5.72;;
74793;SDS011;63320;50.768;6.724;2023-06-26T04:36:44;8.68;;;5.25;;
74793;SDS011;63320;50.768;6.724;2023-06-26T04:39:09;8.57;;;4.88;;
74793;SDS011;63320;50.768;6.724;2023-06-26T04:41:34;7.20;;;4.80;;
74793;SDS011;63320;50.768;6.724;2023-06-26T04:44:00;7.72;;;4.43;;
74793;SDS011;63320;50.768;6.724;2023-06-26T04:46:25;7.15;;;4.35;;
74793;SDS011;63320;50.768;6.724;2023-06-26T04:48:52;8.57;;;4.80;;
74793;SDS011;63320;50.768;6.724;2023-06-26T04:51:17;8.32;;;4.80;;
74793;SDS011;63320;50.768;6.724;2023-06-26T04:53:42;9.70;;;4.70;;
74793;SDS011;63320;50.768;6.724;2023-06-26T04:56:08;9.02;;;4.80;;
74793;SDS011;63320;50.768;6.724;2023-06-26T04:58:33;8.23;;;4.03;;
74793;SDS011;63320;50.768;6.724;2023-06-26T05:00:58;7.70;;;4.55;;
74793;SDS011;63320;50.768;6.724;2023-06-26T05:03:24;9.00;;;4.45;;
74793;SDS011;63320;50.768;6.724;2023-06-26T05:05:50;7.70;;;4.30;;
74793;SDS011;63320;50.768;6.724;2023-06-26T05:08:16;9.82;;;5.03;;
74793;SDS011;63320;50.768;6.724;2023-06-26T05:10:43;7.15;;;4.45;;
74793;SDS011;63320;50.768;6.724;2023-06-26T05:13:09;7.63;;;4.40;;
74793;SDS011;63320;50.768;6.724;2023-06-26T05:15:34;8.93;;;4.30;;
74793;SDS011;63320;50.768;6.724;2023-06-26T05:18:00;11.13;;;4.35;;
74793;SDS011;63320;50.768;6.724;2023-06-26T05:20:25;8.32;;;3.92;;
74793;SDS011;63320;50.768;6.724;2023-06-26T05:22:52;8.52;;;4.07;;
74793;SDS011;63320;50.768;6.724;2023-06-26T05:25:17;8.40;;;3.83;;
74793;SDS011;63320;50.768;6.724;2023-06-26T05:27:43;9.35;;;4.05;;
74793;SDS011;63320;50.768;6.724;2023-06-26T05:30:10;9.00;;;4.00;;
74793;SDS011;63320;50.768;6.724;2023-06-26T05:32:37;11.00;;;4.15;;
74793;SDS011;63320;50.768;6.724;2023-06-26T05:35:05;10.45;;;4.20;;
74793;SDS011;63320;50.768;6.724;2023-06-26T05:37:31;7.55;;;3.85;;
74793;SDS011;63320;50.768;6.724;2023-06-26T05:39:59;8.38;;;4.35;;
74793;SDS011;63320;50.768;6.724;2023-06-26T05:42:26;10.27;;;3.83;;
74793;SDS011;63320;50.768;6.724;2023-06-26T05:44:51;7.65;;;3.67;;
74793;SDS011;63320;50.768;6.724;2023-06-26T05:47:17;8.43;;;3.83;;
74793;SDS011;63320;50.768;6.724;2023-06-26T05:49:42;10.63;;;3.58;;
74793;SDS011;63320;50.768;6.724;2023-06-26T05:52:08;10.40;;;3.97;;
74793;SDS011;63320;50.768;6.724;2023-06-26T05:54:35;9.98;;;4.03;;
74793;SDS011;63320;50.768;6.724;2023-06-26T05:57:02;7.97;;;3.80;;
74793;SDS011;63320;50.768;6.724;2023-06-26T05:59:29;7.32;;;3.47;;
74793;SDS011;63320;50.768;6.724;2023-06-26T06:01:56;8.77;;;3.70;;
74793;SDS011;63320;50.768;6.724;2023-06-26T06:04:22;10.30;;;4.10;;
74793;SDS011;63320;50.768;6.724;2023-06-26T06:06:47;8.60;;;3.90;;
74793;SDS011;63320;50.768;6.724;2023-06-26T06:09:12;8.07;;;3.85;;
74793;SDS011;63320;50.768;6.724;2023-06-26T06:11:38;9.88;;;4.05;;
74793;SDS011;63320;50.768;6.724;2023-06-26T06:14:04;10.73;;;4.47;;
74793;SDS011;63320;50.768;6.724;2023-06-26T06:16:30;12.50;;;5.07;;
74793;SDS011;63320;50.768;6.724;2023-06-26T06:18:55;8.75;;;3.65;;
74793;SDS011;63320;50.768;6.724;2023-06-26T06:21:20;11.88;;;4.35;;
74793;SDS011;63320;50.768;6.724;2023-06-26T06:23:46;10.60;;;3.83;;
74793;SDS011;63320;50.768;6.724;2023-06-26T06:26:11;11.38;;;4.13;;
74793;SDS011;63320;50.768;6.724;2023-06-26T06:28:37;7.95;;;4.07;;
74793;SDS011;63320;50.768;6.724;2023-06-26T06:31:04;11.93;;;4.63;;
74793;SDS011;63320;50.768;6.724;2023-06-26T06:33:29;10.02;;;3.90;;
74793;SDS011;63320;50.768;6.724;2023-06-26T06:35:55;9.30;;;4.35;;
74793;SDS011;63320;50.768;6.724;2023-06-26T06:38:20;11.23;;;4.03;;
74793;SDS011;63320;50.768;6.724;2023-06-26T06:40:45;10.98;;;4.10;;
74793;SDS011;63320;50.768;6.724;2023-06-26T06:43:11;9.00;;;3.78;;
74793;SDS011;63320;50.768;6.724;2023-06-26T06:45:36;11.10;;;4.40;;
74793;SDS011;63320;50.768;6.724;2023-06-26T06:48:03;10.02;;;4.32;;
74793;SDS011;63320;50.768;6.724;2023-06-26T06:50:29;10.32;;;4.57;;
74793;SDS011;63320;50.768;6.724;2023-06-26T06:52:54;11.57;;;4.45;;
74793;SDS011;63320;50.768;6.724;2023-06-26T06:55:19;11.05;;;4.32;;
74793;SDS011;63320;50.768;6.724;2023-06-26T06:57:45;11.90;;;4.80;;
74793;SDS011;63320;50.768;6.724;2023-06-26T07:00:11;9.50;;;4.72;;
74793;SDS011;63320;50.768;6.724;2023-06-26T07:02:38;14.15;;;4.63;;
74793;SDS011;63320;50.768;6.724;2023-06-26T07:05:06;14.55;;;5.28;;
74793;SDS011;63320;50.768;6.724;2023-06-26T07:07:32;12.55;;;4.90;;
74793;SDS011;63320;50.768;6.724;2023-06-26T07:09:59;15.50;;;5.03;;
74793;SDS011;63320;50.768;6.724;2023-06-26T07:12:24;9.88;;;4.72;;
74793;SDS011;63320;50.768;6.724;2023-06-26T07:14:50;15.43;;;5.20;;
74793;SDS011;63320;50.768;6.724;2023-06-26T07:17:15;13.75;;;5.00;;
74793;SDS011;63320;50.768;6.724;2023-06-26T07:19:40;11.05;;;5.15;;
74793;SDS011;63320;50.768;6.724;2023-06-26T07:22:07;9.60;;;4.97;;
74793;SDS011;63320;50.768;6.724;2023-06-26T07:24:32;10.10;;;4.70;;
74793;SDS011;63320;50.768;6.724;2023-06-26T07:26:58;14.27;;;5.20;;
74793;SDS011;63320;50.768;6.724;2023-06-26T07:29:23;16.23;;;5.40;;
74793;SDS011;63320;50.768;6.724;2023-06-26T07:31:48;10.65;;;4.75;;
74793;SDS011;63320;50.768;6.724;2023-06-26T07:34:13;14.88;;;5.03;;
74793;SDS011;63320;50.768;6.724;2023-06-26T07:36:39;11.48;;;4.53;;
74793;SDS011;63320;50.768;6.724;2023-06-26T07:39:06;12.07;;;5.20;;
74793;SDS011;63320;50.768;6.724;2023-06-26T07:41:31;12.18;;;4.85;;
74793;SDS011;63320;50.768;6.724;2023-06-26T07:43:56;11.35;;;4.78;;
74793;SDS011;63320;50.768;6.724;2023-06-26T07:46:22;12.52;;;4.68;;
74793;SDS011;63320;50.768;6.724;2023-06-26T07:48:47;9.43;;;4.50;;
74793;SDS011;63320;50.768;6.724;2023-06-26T07:51:12;13.20;;;4.95;;
74793;SDS011;63320;50.768;6.724;2023-06-26T07:53:38;14.25;;;4.70;;
74793;SDS011;63320;50.768;6.724;2023-06-26T07:56:05;11.98;;;4.63;;
74793;SDS011;63320;50.768;6.724;2023-06-26T07:58:30;11.75;;;4.30;;
74793;SDS011;63320;50.768;6.724;2023-06-26T08:00:55;12.57;;;4.07;;
74793;SDS011;63320;50.768;6.724;2023-06-26T08:03:21;9.27;;;3.80;;
74793;SDS011;63320;50.768;6.724;2023-06-26T08:05:46;9.45;;;3.85;;
74793;SDS011;63320;50.768;6.724;2023-06-26T08:08:11;10.98;;;3.78;;
74793;SDS011;63320;50.768;6.724;2023-06-26T08:10:37;12.20;;;4.07;;
74793;SDS011;63320;50.768;6.724;2023-06-26T08:13:04;10.40;;;3.92;;
74793;SDS011;63320;50.768;6.724;2023-06-26T08:15:29;11.40;;;4.15;;
74793;SDS011;63320;50.768;6.724;2023-06-26T08:17:54;11.38;;;3.90;;
74793;SDS011;63320;50.768;6.724;2023-06-26T08:20:20;8.65;;;3.50;;
74793;SDS011;63320;50.768;6.724;2023-06-26T08:22:45;10.48;;;3.42;;
74793;SDS011;63320;50.768;6.724;2023-06-26T08:25:11;13.48;;;3.70;;
74793;SDS011;63320;50.768;6.724;2023-06-26T08:27:36;12.50;;;3.22;;
74793;SDS011;63320;50.768;6.724;2023-06-26T08:30:03;13.32;;;3.47;;
74793;SDS011;63320;50.768;6.724;2023-06-26T08:32:28;14.30;;;3.80;;
74793;SDS011;63320;50.768;6.724;2023-06-26T08:34:54;12.80;;;3.53;;
74793;SDS011;63320;50.768;6.724;2023-06-26T08:37:19;11.50;;;3.60;;
74793;SDS011;63320;50.768;6.724;2023-06-26T08:39:44;8.25;;;3.40;;
74793;SDS011;63320;50.768;6.724;2023-06-26T08:42:10;11.25;;;3.58;;
74793;SDS011;63320;50.768;6.724;2023-06-26T08:44:36;9.15;;;3.60;;
74793;SDS011;63320;50.768;6.724;2023-06-26T08:47:04;10.70;;;3.80;;
74793;SDS011;63320;50.768;6.724;2023-06-26T08:49:34;14.00;;;3.83;;
74793;SDS011;63320;50.768;6.724;2023-06-26T08:52:03;14.63;;;3.30;;
74793;SDS011;63320;50.768;6.724;2023-06-26T08:54:36;12.85;;;2.75;;
74793;SDS011;63320;50.768;6.724;2023-06-26T08:57:07;10.82;;;3.35;;
74793;SDS011;63320;50.768;6.724;2023-06-26T08:59:33;12.48;;;3.10;;
74793;SDS011;63320;50.768;6.724;2023-06-26T09:01:59;10.10;;;2.70;;
74793;SDS011;63320;50.768;6.724;2023-06-26T09:04:26;8.68;;;2.55;;
74793;SDS011;63320;50.768;6.724;2023-06-26T09:06:51;9.95;;;3.00;;
74793;SDS011;63320;50.768;6.724;2023-06-26T09:09:17;9.70;;;3.00;;
74793;SDS011;63320;50.768;6.724;2023-06-26T09:11:42;10.18;;;2.45;;
74793;SDS011;63320;50.768;6.724;2023-06-26T09:14:07;10.27;;;2.30;;
74793;SDS011;63320;50.768;6.724;2023-06-26T09:16:38;7.78;;;2.80;;
74793;SDS011;63320;50.768;6.724;2023-06-26T09:19:06;9.25;;;2.72;;
74793;SDS011;63320;50.768;6.724;2023-06-26T09:21:35;7.10;;;2.42;;
74793;SDS011;63320;50.768;6.724;2023-06-26T09:24:00;6.57;;;2.25;;
74793;SDS011;63320;50.768;6.724;2023-06-26T09:26:26;8.93;;;2.38;;
74793;SDS011;63320;50.768;6.724;2023-06-26T09:28:51;7.88;;;2.22;;
74793;SDS011;63320;50.768;6.724;2023-06-26T09:31:17;10.55;;;2.60;;
74793;SDS011;63320;50.768;6.724;2023-06-26T09:33:42;12.18;;;3.00;;
74793;SDS011;63320;50.768;6.724;2023-06-26T09:36:08;7.38;;;2.40;;
74793;SDS011;63320;50.768;6.724;2023-06-26T09:38:35;14.10;;;2.67;;
74793;SDS011;63320;50.768;6.724;2023-06-26T09:41:01;9.43;;;2.30;;
74793;SDS011;63320;50.768;6.724;2023-06-26T09:43:26;8.98;;;2.05;;
74793;SDS011;63320;50.768;6.724;2023-06-26T09:45:51;6.45;;;2.03;;
74793;SDS011;63320;50.768;6.724;2023-06-26T09:48:17;11.20;;;2.40;;
74793;SDS011;63320;50.768;6.724;2023-06-26T09:50:43;6.60;;;2.22;;
74793;SDS011;63320;50.768;6.724;2023-06-26T09:53:09;9.35;;;2.45;;
74793;SDS011;63320;50.768;6.724;2023-06-26T09:55:36;10.85;;;2.20;;
74793;SDS011;63320;50.768;6.724;2023-06-26T09:58:02;7.72;;;2.40;;
74793;SDS011;63320;50.768;6.724;2023-06-26T10:00:28;9.45;;;2.25;;
74793;SDS011;63320;50.768;6.724;2023-06-26T10:02:54;6.93;;;2.00;;
74793;SDS011;63320;50.768;6.724;2023-06-26T10:05:20;7.90;;;2.20;;
74793;SDS011;63320;50.768;6.724;2023-06-26T10:07:45;12.65;;;2.55;;
74793;SDS011;63320;50.768;6.724;2023-06-26T10:10:12;11.30;;;2.10;;
74793;SDS011;63320;50.768;6.724;2023-06-26T10:12:39;11.57;;;2.60;;
74793;SDS011;63320;50.768;6.724;2023-06-26T10:15:05;11.18;;;1.90;;
74793;SDS011;63320;50.768;6.724;2023-06-26T10:17:34;7.05;;;1.95;;
74793;SDS011;63320;50.768;6.724;2023-06-26T10:20:03;14.07;;;2.70;;
74793;SDS011;63320;50.768;6.724;2023-06-26T10:22:33;8.68;;;1.90;;
74793;SDS011;63320;50.768;6.724;2023-06-26T10:25:02;7.22;;;1.80;;
74793;SDS011;63320;50.768;6.724;2023-06-26T10:27:33;8.45;;;1.88;;
74793;SDS011;63320;50.768;6.724;2023-06-26T10:30:04;6.85;;;1.90;;
74793;SDS011;63320;50.768;6.724;2023-06-26T10:32:35;8.90;;;1.70;;
74793;SDS011;63320;50.768;6.724;2023-06-26T10:35:01;9.27;;;1.80;;
74793;SDS011;63320;50.768;6.724;2023-06-26T10:37:40;6.93;;;1.95;;
74793;SDS011;63320;50.768;6.724;2023-06-26T10:40:06;6.93;;;1.75;;
74793;SDS011;63320;50.768;6.724;2023-06-26T10:42:34;12.00;;;2.42;;
74793;SDS011;63320;50.768;6.724;2023-06-26T10:45:09;9.60;;;2.10;;
74793;SDS011;63320;50.768;6.724;2023-06-26T10:47:36;9.90;;;2.13;;
74793;SDS011;63320;50.768;6.724;2023-06-26T10:50:16;8.77;;;2.15;;
74793;SDS011;63320;50.768;6.724;2023-06-26T10:52:42;7.65;;;1.80;;
74793;SDS011;63320;50.768;6.724;2023-06-26T10:55:07;8.00;;;2.13;;
74793;SDS011;63320;50.768;6.724;2023-06-26T10:57:33;6.82;;;1.77;;
74793;SDS011;63320;50.768;6.724;2023-06-26T11:00:11;6.20;;;1.75;;
74793;SDS011;63320;50.768;6.724;2023-06-26T11:02:48;7.97;;;2.15;;
74793;SDS011;63320;50.768;6.724;2023-06-26T11:05:22;8.73;;;1.95;;
74793;SDS011;63320;50.768;6.724;2023-06-26T11:08:02;8.35;;;2.10;;
74793;SDS011;63320;50.768;6.724;2023-06-26T11:10:28;9.07;;;1.90;;
74793;SDS011;63320;50.768;6.724;2023-06-26T11:12:53;10.32;;;1.90;;
74793;SDS011;63320;50.768;6.724;2023-06-26T11:15:25;6.38;;;1.70;;
74793;SDS011;63320;50.768;6.724;2023-06-26T11:17:52;6.13;;;1.63;;
74793;SDS011;63320;50.768;6.724;2023-06-26T11:20:18;10.13;;;2.00;;
74793;SDS011;63320;50.768;6.724;2023-06-26T11:22:43;9.63;;;1.85;;
74793;SDS011;63320;50.768;6.724;2023-06-26T11:25:09;7.75;;;2.17;;
74793;SDS011;63320;50.768;6.724;2023-06-26T11:27:37;10.32;;;2.03;;
74793;SDS011;63320;50.768;6.724;2023-06-26T11:30:03;7.43;;;1.80;;
74793;SDS011;63320;50.768;6.724;2023-06-26T11:32:31;10.85;;;1.92;;
74793;SDS011;63320;50.768;6.724;2023-06-26T11:34:56;8.13;;;1.63;;
74793;SDS011;63320;50.768;6.724;2023-06-26T11:37:22;7.20;;;1.70;;
74793;SDS011;63320;50.768;6.724;2023-06-26T11:39:47;7.13;;;1.77;;
74793;SDS011;63320;50.768;6.724;2023-06-26T11:42:12;10.15;;;1.55;;
74793;SDS011;63320;50.768;6.724;2023-06-26T11:44:40;6.05;;;1.38;;
74793;SDS011;63320;50.768;6.724;2023-06-26T11:47:06;7.43;;;1.58;;
74793;SDS011;63320;50.768;6.724;2023-06-26T11:49:32;7.38;;;1.83;;
74793;SDS011;63320;50.768;6.724;2023-06-26T11:51:58;5.35;;;1.30;;
74793;SDS011;63320;50.768;6.724;2023-06-26T11:54:24;5.20;;;1.40;;
74793;SDS011;63320;50.768;6.724;2023-06-26T11:56:56;5.65;;;1.77;;
74793;SDS011;63320;50.768;6.724;2023-06-26T11:59:23;6.00;;;1.50;;
74793;SDS011;63320;50.768;6.724;2023-06-26T12:01:49;7.55;;;1.83;;
74793;SDS011;63320;50.768;6.724;2023-06-26T12:04:16;9.90;;;1.73;;
74793;SDS011;63320;50.768;6.724;2023-06-26T12:06:45;8.07;;;1.60;;
74793;SDS011;63320;50.768;6.724;2023-06-26T12:09:12;6.88;;;1.67;;
74793;SDS011;63320;50.768;6.724;2023-06-26T12:11:39;6.35;;;1.75;;
74793;SDS011;63320;50.768;6.724;2023-06-26T12:14:07;9.93;;;1.63;;
74793;SDS011;63320;50.768;6.724;2023-06-26T12:16:33;4.65;;;1.50;;
74793;SDS011;63320;50.768;6.724;2023-06-26T12:19:00;5.70;;;1.70;;
74793;SDS011;63320;50.768;6.724;2023-06-26T12:21:43;5.80;;;1.50;;
74793;SDS011;63320;50.768;6.724;2023-06-26T12:24:12;10.40;;;1.60;;
74793;SDS011;63320;50.768;6.724;2023-06-26T12:26:41;5.72;;;1.50;;
74793;SDS011;63320;50.768;6.724;2023-06-26T12:29:07;8.05;;;2.03;;
74793;SDS011;63320;50.768;6.724;2023-06-26T12:31:34;10.18;;;1.80;;
74793;SDS011;63320;50.768;6.724;2023-06-26T12:34:00;7.68;;;1.30;;
74793;SDS011;63320;50.768;6.724;2023-06-26T12:36:25;4.80;;;1.70;;
74793;SDS011;63320;50.768;6.724;2023-06-26T12:38:53;9.32;;;1.70;;
74793;SDS011;63320;50.768;6.724;2023-06-26T12:41:19;6.00;;;1.70;;
74793;SDS011;63320;50.768;6.724;2023-06-26T12:43:48;6.13;;;1.30;;
74793;SDS011;63320;50.768;6.724;2023-06-26T12:46:13;4.78;;;1.33;;
74793;SDS011;63320;50.768;6.724;2023-06-26T12:48:39;7.60;;;1.58;;
74793;SDS011;63320;50.768;6.724;2023-06-26T12:51:09;7.88;;;1.42;;
74793;SDS011;63320;50.768;6.724;2023-06-26T12:53:35;10.07;;;1.90;;
74793;SDS011;63320;50.768;6.724;2023-06-26T12:56:01;5.80;;;1.58;;
74793;SDS011;63320;50.768;6.724;2023-06-26T12:58:27;6.47;;;1.38;;
74793;SDS011;63320;50.768;6.724;2023-06-26T13:00:52;7.18;;;1.98;;
74793;SDS011;63320;50.768;6.724;2023-06-26T13:03:18;6.35;;;1.50;;
74793;SDS011;63320;50.768;6.724;2023-06-26T13:05:43;6.30;;;1.65;;
74793;SDS011;63320;50.768;6.724;2023-06-26T13:08:08;6.60;;;1.48;;
74793;SDS011;63320;50.768;6.724;2023-06-26T13:10:34;7.47;;;1.65;;
74793;SDS011;63320;50.768;6.724;2023-06-26T13:13:00;7.25;;;1.60;;
74793;SDS011;63320;50.768;6.724;2023-06-26T13:15:26;7.50;;;1.77;;
74793;SDS011;63320;50.768;6.724;2023-06-26T13:17:51;7.30;;;1.40;;
74793;SDS011;63320;50.768;6.724;2023-06-26T13:20:16;4.93;;;1.42;;
74793;SDS011;63320;50.768;6.724;2023-06-26T13:22:42;5.25;;;1.48;;
74793;SDS011;63320;50.768;6.724;2023-06-26T13:25:07;6.97;;;1.38;;
74793;SDS011;63320;50.768;6.724;2023-06-26T13:27:33;8.60;;;1.60;;
74793;SDS011;63320;50.768;6.724;2023-06-26T13:30:00;4.55;;;1.38;;
74793;SDS011;63320;50.768;6.724;2023-06-26T13:32:25;7.40;;;1.50;;
74793;SDS011;63320;50.768;6.724;2023-06-26T13:34:50;4.88;;;1.25;;
74793;SDS011;63320;50.768;6.724;2023-06-26T13:37:16;5.68;;;1.60;;
74793;SDS011;63320;50.768;6.724;2023-06-26T13:39:41;6.80;;;1.38;;
74793;SDS011;63320;50.768;6.724;2023-06-26T13:42:07;5.93;;;1.40;;
74793;SDS011;63320;50.768;6.724;2023-06-26T13:44:32;8.82;;;1.50;;
74793;SDS011;63320;50.768;6.724;2023-06-26T13:46:59;6.78;;;1.40;;
74793;SDS011;63320;50.768;6.724;2023-06-26T13:49:24;5.78;;;1.98;;
74793;SDS011;63320;50.768;6.724;2023-06-26T13:51:51;6.88;;;1.42;;
74793;SDS011;63320;50.768;6.724;2023-06-26T13:54:16;8.40;;;1.70;;
74793;SDS011;63320;50.768;6.724;2023-06-26T13:56:41;4.30;;;1.25;;
74793;SDS011;63320;50.768;6.724;2023-06-26T13:59:07;5.57;;;1.52;;
74793;SDS011;63320;50.768;6.724;2023-06-26T14:01:32;11.88;;;1.67;;
74793;SDS011;63320;50.768;6.724;2023-06-26T14:03:59;5.18;;;1.20;;
74793;SDS011;63320;50.768;6.724;2023-06-26T14:06:24;5.68;;;1.45;;
74793;SDS011;63320;50.768;6.724;2023-06-26T14:08:49;7.50;;;1.45;;
74793;SDS011;63320;50.768;6.724;2023-06-26T14:11:15;8.80;;;1.30;;
74793;SDS011;63320;50.768;6.724;2023-06-26T14:13:40;6.55;;;1.90;;
74793;SDS011;63320;50.768;6.724;2023-06-26T14:16:05;6.78;;;1.45;;
74793;SDS011;63320;50.768;6.724;2023-06-26T14:18:31;6.00;;;1.20;;
74793;SDS011;63320;50.768;6.724;2023-06-26T14:20:57;8.15;;;1.85;;
74793;SDS011;63320;50.768;6.724;2023-06-26T14:23:23;5.32;;;1.10;;
74793;SDS011;63320;50.768;6.724;2023-06-26T14:25:48;5.15;;;1.45;;
74793;SDS011;63320;50.768;6.724;2023-06-26T14:28:13;7.53;;;1.50;;
74793;SDS011;63320;50.768;6.724;2023-06-26T14:30:39;5.75;;;1.30;;
74793;SDS011;63320;50.768;6.724;2023-06-26T14:33:04;5.43;;;1.38;;
74793;SDS011;63320;50.768;6.724;2023-06-26T14:35:29;7.78;;;1.60;;
74793;SDS011;63320;50.768;6.724;2023-06-26T14:37:56;4.88;;;1.50;;